createdAt,value
2023-01-08T00:01:08.132Z,36.33
2023-01-08T00:04:00.189Z,34.22
2023-01-08T00:06:48.113Z,36.63
2023-01-08T00:09:22.032Z,36.80
2023-01-08T00:12:10.092Z,34.72
2023-01-08T00:14:44.076Z,35.72
2023-01-08T00:17:32.085Z,35.63
2023-01-08T00:20:06.322Z,36.70
2023-01-08T00:22:54.068Z,36.13
2023-01-08T00:25:34.062Z,36.75
2023-01-08T00:28:15.221Z,36.10
2023-01-08T00:30:56.165Z,38.50
2023-01-08T00:33:37.213Z,34.65
2023-01-08T00:36:19.074Z,36.75
2023-01-08T00:39:00.918Z,34.72
2023-01-08T00:41:41.117Z,36.47
2023-01-08T00:44:22.141Z,37.80
2023-01-08T00:47:03.082Z,34.65
2023-01-08T00:49:44.178Z,37.35
2023-01-08T00:52:24.131Z,37.05
2023-01-08T00:55:05.158Z,35.67
2023-01-08T00:57:46.093Z,35.22
2023-01-08T01:00:34.077Z,35.38
2023-01-08T01:03:15.070Z,31.40
2023-01-08T01:05:56.197Z,37.65
2023-01-08T01:08:37.097Z,35.30
2023-01-08T01:11:28.122Z,35.08
2023-01-08T01:14:08.073Z,35.60
2023-01-08T01:16:49.234Z,35.83
2023-01-08T01:19:31.129Z,33.80
2023-01-08T01:22:12.190Z,32.28
2023-01-08T01:24:53.093Z,34.83
2023-01-08T01:27:41.072Z,36.67
2023-01-08T01:30:15.040Z,34.95
2023-01-08T01:33:03.113Z,31.60
2023-01-08T01:35:37.045Z,33.33
2023-01-08T01:38:25.138Z,35.15
2023-01-08T01:40:59.424Z,32.92
2023-01-08T01:43:56.066Z,32.30
2023-01-08T01:46:40.593Z,32.70
2023-01-08T01:49:36.066Z,34.03
2023-01-08T01:52:10.563Z,33.45
2023-01-08T01:54:58.116Z,37.17
2023-01-08T01:57:39.083Z,33.03
2023-01-08T02:00:27.105Z,36.15
2023-01-08T02:03:08.066Z,34.92
2023-01-08T02:05:58.151Z,33.83
2023-01-08T02:08:55.090Z,35.88
2023-01-08T02:11:39.187Z,35.13
2023-01-08T02:14:40.062Z,36.72
2023-01-08T02:17:30.099Z,35.38
2023-01-08T02:20:13.055Z,36.78
2023-01-08T02:23:19.086Z,34.00
2023-01-08T02:26:26.073Z,34.13
2023-01-08T02:29:18.105Z,37.45
2023-01-08T02:31:59.113Z,37.13
2023-01-08T02:34:53.099Z,35.33
2023-01-08T02:37:41.111Z,35.65
2023-01-08T02:40:22.123Z,35.45
2023-01-08T02:43:09.084Z,34.00
2023-01-08T02:45:53.120Z,34.97
2023-01-08T02:48:50.124Z,35.63
2023-01-08T02:51:31.140Z,32.92
2023-01-08T02:54:38.089Z,31.67
2023-01-08T02:57:26.110Z,34.38
2023-01-08T03:00:00.173Z,35.78
2023-01-08T03:02:50.587Z,35.30
2023-01-08T03:05:32.192Z,31.83
2023-01-08T03:08:20.119Z,34.53
2023-01-08T03:10:57.185Z,34.47
2023-01-08T03:16:51.142Z,30.80
2023-01-08T03:19:42.109Z,35.67
2023-01-08T03:22:25.139Z,33.15
2023-01-08T03:25:20.098Z,34.30
2023-01-08T03:28:12.133Z,32.58
2023-01-08T03:30:47.262Z,34.00
2023-01-08T03:33:35.105Z,32.25
2023-01-08T03:36:18.100Z,35.50
2023-01-08T03:39:32.111Z,35.25
2023-01-08T03:42:21.100Z,34.13
2023-01-08T03:44:55.196Z,31.70
2023-01-08T03:47:43.131Z,34.35
2023-01-08T03:50:21.222Z,33.67
2023-01-08T03:53:09.096Z,33.45
2023-01-08T03:55:43.260Z,34.65
2023-01-08T03:58:30.087Z,36.22
2023-01-08T04:01:04.219Z,32.47
2023-01-08T04:03:51.130Z,33.88
2023-01-08T04:06:25.186Z,34.03
2023-01-08T04:09:13.111Z,33.45
2023-01-08T04:11:47.206Z,31.75
2023-01-08T04:14:34.100Z,32.50
2023-01-08T04:17:08.171Z,28.13
2023-01-08T04:19:55.129Z,31.98
2023-01-08T04:22:29.173Z,31.58
2023-01-08T04:25:17.117Z,32.20
2023-01-08T04:27:51.191Z,32.50
2023-01-08T04:30:39.131Z,33.08
2023-01-08T04:33:20.110Z,31.65
2023-01-08T04:36:14.126Z,32.00
2023-01-08T04:39:01.118Z,33.30
2023-01-08T04:41:35.208Z,32.50
2023-01-08T04:44:22.099Z,32.13
2023-01-08T04:47:03.099Z,33.95
2023-01-08T04:49:57.077Z,32.00
2023-01-08T04:52:45.134Z,33.03
2023-01-08T04:55:19.179Z,35.90
2023-01-08T04:58:06.122Z,31.73
2023-01-08T05:00:40.207Z,33.42
2023-01-08T05:03:27.165Z,36.00
2023-01-08T05:06:01.249Z,33.25
2023-01-08T05:08:48.185Z,33.90
2023-01-08T05:11:29.122Z,36.28
2023-01-08T05:14:17.163Z,37.35
2023-01-08T05:16:51.174Z,31.02
2023-01-08T05:19:38.524Z,36.15
2023-01-08T05:22:20.096Z,34.85
2023-01-08T05:25:14.075Z,32.08
2023-01-08T05:28:02.100Z,33.42
2023-01-08T05:30:36.175Z,33.95
2023-01-08T05:33:23.124Z,33.67
2023-01-08T05:35:57.201Z,33.17
2023-01-08T05:38:45.118Z,35.25
2023-01-08T05:41:19.182Z,36.22
2023-01-08T05:44:07.141Z,35.33
2023-01-08T05:46:41.230Z,34.70
2023-01-08T05:49:28.095Z,35.10
2023-01-08T05:52:02.264Z,31.27
2023-01-08T05:54:49.161Z,27.05
2023-01-08T05:57:23.178Z,28.65
2023-01-08T06:00:12.110Z,34.63
2023-01-08T06:02:53.224Z,29.20
2023-01-08T06:05:40.122Z,33.80
2023-01-08T06:08:14.175Z,28.35
2023-01-08T06:11:02.142Z,31.77
2023-01-08T06:13:44.124Z,32.90
2023-01-08T06:16:38.097Z,31.35
2023-01-08T06:19:26.098Z,27.10
2023-01-08T06:22:00.215Z,29.42
2023-01-08T06:24:47.153Z,30.67
2023-01-08T06:27:21.217Z,29.85
2023-01-08T06:30:08.133Z,31.35
2023-01-08T06:32:49.118Z,26.33
2023-01-08T06:35:43.098Z,29.85
2023-01-08T06:38:37.111Z,27.45
2023-01-08T06:41:25.125Z,26.65
2023-01-08T06:44:06.151Z,31.52
2023-01-08T06:47:00.134Z,30.40
2023-01-08T06:49:47.126Z,30.52
2023-01-08T06:52:28.215Z,32.25
2023-01-08T06:55:08.104Z,33.65
2023-01-08T06:57:56.166Z,29.00
2023-01-08T07:00:30.110Z,32.33
2023-01-08T07:03:18.216Z,30.48
2023-01-08T07:05:52.171Z,32.22
2023-01-08T07:08:40.105Z,28.52
2023-01-08T07:11:14.369Z,31.90
2023-01-08T07:14:02.204Z,32.42
2023-01-08T07:16:36.472Z,30.75
2023-01-08T07:19:24.156Z,33.30
2023-01-08T07:21:58.075Z,34.53
2023-01-08T07:24:46.165Z,34.58
2023-01-08T07:27:20.213Z,32.10
2023-01-08T07:30:12.819Z,33.20
2023-01-08T07:32:52.099Z,31.27
2023-01-08T07:35:40.135Z,30.58
2023-01-08T07:38:21.124Z,28.48
2023-01-08T07:41:02.264Z,30.00
2023-01-08T07:43:50.136Z,30.45
2023-01-08T07:46:24.344Z,29.15
2023-01-08T07:49:12.147Z,29.75
2023-01-08T07:51:46.202Z,28.45
2023-01-08T07:54:34.136Z,28.17
2023-01-08T07:57:08.214Z,26.63
2023-01-08T07:59:55.140Z,27.10
2023-01-08T08:02:36.302Z,27.02
2023-01-08T08:05:30.122Z,28.90
2023-01-08T08:08:18.120Z,28.77
2023-01-08T08:10:52.200Z,31.42
2023-01-08T08:13:40.109Z,28.25
2023-01-08T08:16:21.325Z,27.67
2023-01-08T08:19:01.144Z,29.52
2023-01-08T08:21:42.206Z,25.92
2023-01-08T08:24:23.119Z,30.30
2023-01-08T08:27:11.139Z,27.40
2023-01-08T08:29:45.103Z,26.30
2023-01-08T08:32:33.107Z,24.73
2023-01-08T08:35:07.457Z,26.40
2023-01-08T08:37:55.145Z,26.02
2023-01-08T08:40:36.196Z,24.15
2023-01-08T08:43:17.239Z,24.73
2023-01-08T08:45:57.171Z,29.02
2023-01-08T08:48:38.246Z,26.17
2023-01-08T08:51:19.120Z,23.30
2023-01-08T08:54:00.214Z,25.80
2023-01-08T08:56:40.172Z,27.08
2023-01-08T08:59:29.122Z,21.50
2023-01-08T09:02:10.295Z,27.25
2023-01-08T09:04:51.272Z,23.90
2023-01-08T09:07:32.162Z,28.88
2023-01-08T09:10:13.234Z,25.42
2023-01-08T09:12:54.150Z,26.63
2023-01-08T09:15:42.165Z,22.55
2023-01-08T09:18:16.202Z,25.40
2023-01-08T09:21:04.136Z,25.27
2023-01-08T09:23:38.801Z,25.02
2023-01-08T09:26:26.140Z,24.90
2023-01-08T09:29:00.177Z,26.85
2023-01-08T09:31:48.209Z,24.40
2023-01-08T09:34:22.089Z,23.77
2023-01-08T09:37:10.123Z,24.45
2023-01-08T09:39:48.111Z,22.65
2023-01-08T09:42:42.120Z,23.98
2023-01-08T09:45:26.636Z,24.48
2023-01-08T09:48:26.165Z,24.63
2023-01-08T09:51:00.161Z,24.70
2023-01-08T09:53:48.165Z,23.08
2023-01-08T09:56:29.155Z,26.05
2023-01-08T09:59:18.170Z,24.60
2023-01-08T10:01:59.267Z,26.83
2023-01-08T10:04:40.220Z,24.92
2023-01-08T10:07:29.153Z,24.10
2023-01-08T10:10:17.125Z,24.23
2023-01-08T10:12:51.519Z,25.50
2023-01-08T10:15:39.135Z,25.05
2023-01-08T10:18:14.438Z,21.35
2023-01-08T10:21:02.149Z,23.80
2023-01-08T10:24:03.139Z,24.23
2023-01-08T10:26:52.620Z,21.27
2023-01-08T10:29:27.207Z,22.80
2023-01-08T10:32:26.148Z,17.42
2023-01-08T10:35:08.161Z,21.88
2023-01-08T10:37:57.183Z,25.42
2023-01-08T10:40:34.247Z,24.00
2023-01-08T10:43:27.174Z,24.45
2023-01-08T10:46:11.300Z,25.52
2023-01-08T10:49:00.158Z,20.80
2023-01-08T10:51:48.153Z,24.23
2023-01-08T10:54:40.993Z,24.95
2023-01-08T10:57:37.184Z,25.70
2023-01-08T11:00:31.202Z,26.35
2023-01-08T11:03:14.211Z,24.08
2023-01-08T11:05:56.184Z,25.50
2023-01-08T11:08:37.229Z,24.52
2023-01-08T11:11:18.148Z,26.35
2023-01-08T11:14:03.315Z,25.20
2023-01-08T11:16:47.198Z,25.85
2023-01-08T11:19:33.240Z,26.63
2023-01-08T11:22:25.185Z,24.63
2023-01-08T11:25:32.149Z,25.48
2023-01-08T11:28:23.161Z,20.65
2023-01-08T11:31:09.162Z,24.65
2023-01-08T11:33:58.139Z,25.77
2023-01-08T11:36:40.232Z,29.00
2023-01-08T11:39:28.189Z,32.55
2023-01-08T11:42:34.128Z,28.27
2023-01-08T11:45:38.210Z,26.20
2023-01-08T11:48:32.166Z,22.73
2023-01-08T11:51:28.177Z,24.58
2023-01-08T11:54:35.155Z,24.40
2023-01-08T11:57:41.192Z,24.23
2023-01-08T12:00:38.262Z,24.48
2023-01-08T12:03:52.164Z,20.02
2023-01-08T12:06:27.693Z,21.75
2023-01-08T12:09:14.181Z,24.90
2023-01-08T12:12:04.174Z,24.33
2023-01-08T12:15:14.165Z,24.48
2023-01-08T12:18:08.127Z,22.95
2023-01-08T12:20:58.128Z,21.08
2023-01-08T12:23:32.273Z,19.93
2023-01-08T12:26:27.144Z,18.35
2023-01-08T12:29:13.321Z,20.17
2023-01-08T12:32:09.197Z,21.40
2023-01-08T12:35:02.583Z,20.35
2023-01-08T12:37:54.149Z,20.80
2023-01-08T12:40:32.236Z,23.48
2023-01-08T12:43:33.157Z,25.25
2023-01-08T12:48:56.146Z,24.92
2023-01-08T12:51:39.213Z,22.00
2023-01-08T12:54:45.192Z,22.42
2023-01-08T12:57:26.152Z,20.65
2023-01-08T13:00:47.178Z,23.58
2023-01-08T13:03:36.163Z,24.58
2023-01-08T13:06:29.174Z,22.27
2023-01-08T13:09:34.135Z,21.80
2023-01-08T13:12:22.181Z,17.58
2023-01-08T13:14:58.294Z,21.40
2023-01-08T13:17:45.147Z,23.50
2023-01-08T13:20:35.164Z,25.73
2023-01-08T13:23:29.272Z,26.38
2023-01-08T13:26:11.160Z,21.38
2023-01-08T13:28:52.193Z,24.00
2023-01-08T13:31:29.347Z,25.13
2023-01-08T13:34:46.167Z,30.92
2023-01-08T13:37:27.538Z,22.75
2023-01-08T13:40:34.171Z,24.58
2023-01-08T13:43:15.180Z,22.30
2023-01-08T13:46:09.423Z,19.80
2023-01-08T13:49:09.196Z,22.08
2023-01-08T13:51:58.186Z,21.13
2023-01-08T13:54:54.148Z,19.02
2023-01-08T13:57:45.165Z,19.20
2023-01-08T14:00:26.306Z,22.65
2023-01-08T14:03:28.157Z,20.95
2023-01-08T14:06:30.194Z,18.63
2023-01-08T14:09:34.641Z,26.13
2023-01-08T14:12:23.184Z,23.45
2023-01-08T14:15:09.753Z,24.48
2023-01-08T14:17:50.192Z,21.52
2023-01-08T14:20:36.241Z,25.45
2023-01-08T14:23:26.246Z,26.60
2023-01-08T14:26:10.576Z,23.65
2023-01-08T14:28:58.165Z,25.40
2023-01-08T14:31:39.251Z,24.08
2023-01-08T14:34:21.164Z,24.00
2023-01-08T14:37:11.148Z,26.35
2023-01-08T14:39:48.323Z,30.23
2023-01-08T14:42:49.174Z,22.83
2023-01-08T14:48:26.207Z,22.80
2023-01-08T14:51:07.914Z,27.75
2023-01-08T14:54:24.163Z,24.10
2023-01-08T14:57:00.818Z,20.95
2023-01-08T14:59:50.193Z,23.15
2023-01-08T15:02:32.849Z,31.10
2023-01-08T15:05:33.208Z,22.05
2023-01-08T15:08:34.164Z,22.70
2023-01-08T15:11:19.252Z,26.05
2023-01-08T15:14:07.169Z,27.52
2023-01-08T15:16:45.719Z,25.30
2023-01-08T15:19:34.163Z,24.80
2023-01-08T15:22:16.325Z,25.48
2023-01-08T15:25:15.188Z,24.83
2023-01-08T15:28:17.156Z,21.50
2023-01-08T15:31:05.183Z,19.58
2023-01-08T15:33:39.377Z,22.83
2023-01-08T15:36:28.342Z,19.65
2023-01-08T15:39:02.316Z,21.02
2023-01-08T15:42:08.160Z,21.35
2023-01-08T15:44:49.176Z,25.58
2023-01-08T15:47:36.161Z,23.40
2023-01-08T15:50:10.226Z,25.77
2023-01-08T15:52:57.180Z,22.33
2023-01-08T15:55:39.169Z,21.50
2023-01-08T15:58:33.155Z,22.90
2023-01-08T16:01:20.263Z,20.73
2023-01-08T16:04:01.472Z,21.15
2023-01-08T16:06:43.168Z,23.52
2023-01-08T16:09:24.334Z,20.83
2023-01-08T16:12:04.172Z,17.98
2023-01-08T16:14:45.330Z,24.38
2023-01-08T16:17:25.182Z,20.10
2023-01-08T16:20:06.246Z,25.00
2023-01-08T16:22:47.154Z,22.63
2023-01-08T16:25:35.212Z,21.83
2023-01-08T16:28:09.251Z,20.95
2023-01-08T16:30:57.181Z,26.25
2023-01-08T16:33:38.365Z,22.92
2023-01-08T16:36:19.283Z,21.88
2023-01-08T16:39:00.227Z,24.02
2023-01-08T16:41:48.163Z,17.20
2023-01-08T16:44:30.214Z,20.83
2023-01-08T16:47:18.172Z,23.77
2023-01-08T16:49:59.230Z,25.50
2023-01-08T16:52:40.294Z,24.10
2023-01-08T16:55:20.157Z,23.25
2023-01-08T16:58:01.313Z,25.70
2023-01-08T17:00:42.183Z,21.67
2023-01-08T17:03:30.231Z,22.00
2023-01-08T17:06:25.158Z,23.58
2023-01-08T17:09:13.197Z,22.35
2023-01-08T17:11:47.783Z,24.20
2023-01-08T17:14:35.265Z,23.30
2023-01-08T17:17:16.219Z,20.08
2023-01-08T17:20:10.158Z,24.60
2023-01-08T17:22:57.238Z,20.23
2023-01-08T17:25:31.292Z,21.02
2023-01-08T17:28:18.228Z,24.52
2023-01-08T17:30:59.247Z,23.58
2023-01-08T17:33:56.155Z,21.13
2023-01-08T17:36:43.286Z,23.15
2023-01-08T17:39:18.253Z,20.80
2023-01-08T17:42:24.367Z,21.00
2023-01-08T17:44:58.483Z,24.63
2023-01-08T17:47:46.247Z,23.10
2023-01-08T17:50:20.261Z,23.38
2023-01-08T17:53:08.335Z,20.05
2023-01-08T17:55:50.179Z,25.88
2023-01-08T17:58:44.232Z,23.98
2023-01-08T18:01:31.267Z,24.33
2023-01-08T18:04:12.316Z,23.55
2023-01-08T18:06:52.285Z,24.50
2023-01-08T18:09:35.156Z,22.80
2023-01-08T18:12:18.340Z,20.30
2023-01-08T18:15:06.279Z,22.33
2023-01-08T18:17:40.373Z,22.80
2023-01-08T18:20:28.310Z,22.58
2023-01-08T18:23:02.274Z,20.95
2023-01-08T18:25:53.344Z,20.88
2023-01-08T18:28:34.186Z,20.60
2023-01-08T18:31:23.407Z,22.75
2023-01-08T18:34:04.204Z,23.50
2023-01-08T18:36:52.363Z,22.75
2023-01-08T18:39:35.382Z,23.70
2023-01-08T18:42:28.586Z,24.40
2023-01-08T18:45:10.329Z,20.15
2023-01-08T18:47:58.370Z,25.08
2023-01-08T18:50:39.343Z,22.05
2023-01-08T18:53:20.291Z,22.00
2023-01-08T18:56:01.203Z,27.33
2023-01-08T18:58:42.485Z,23.35
2023-01-08T19:01:23.286Z,23.77
2023-01-08T19:04:04.414Z,23.70
2023-01-08T19:06:44.187Z,26.23
2023-01-08T19:09:25.256Z,25.42
2023-01-08T19:12:06.344Z,23.45
2023-01-08T19:14:54.301Z,24.83
2023-01-08T19:17:30.982Z,24.88
2023-01-08T19:20:18.367Z,21.17
2023-01-08T19:22:52.824Z,23.08
2023-01-08T19:25:40.364Z,24.80
2023-01-08T19:28:14.155Z,25.67
2023-01-08T19:31:12.242Z,21.23
2023-01-08T19:33:53.220Z,24.92
2023-01-08T19:36:43.618Z,21.15
2023-01-08T19:39:24.377Z,22.02
2023-01-08T19:42:24.169Z,21.58
2023-01-08T19:45:05.372Z,24.80
2023-01-08T19:47:54.902Z,23.27
2023-01-08T19:50:30.584Z,23.73
2023-01-08T19:53:18.203Z,21.52
2023-01-08T19:55:52.318Z,22.23
2023-01-08T19:58:40.403Z,23.73
2023-01-08T20:01:28.369Z,24.75
2023-01-08T20:04:09.277Z,19.48
2023-01-08T20:06:50.363Z,22.40
2023-01-08T20:09:32.855Z,18.17
2023-01-08T20:12:14.402Z,22.75
2023-01-08T20:14:55.435Z,22.70
2023-01-08T20:17:35.388Z,22.05
2023-01-08T20:20:24.394Z,24.20
2023-01-08T20:23:04.194Z,22.90
2023-01-08T20:25:46.059Z,22.48
2023-01-08T20:28:26.336Z,23.38
2023-01-08T20:31:25.263Z,22.90
2023-01-08T20:34:00.861Z,23.17
2023-01-08T20:36:48.216Z,24.00
2023-01-08T20:39:28.376Z,23.50
2023-01-08T20:42:10.085Z,21.65
2023-01-08T20:44:50.384Z,21.75
2023-01-08T20:47:38.233Z,23.08
2023-01-08T20:50:20.048Z,24.67
2023-01-08T20:53:01.286Z,21.27
2023-01-08T20:55:43.199Z,21.02
2023-01-08T20:58:24.273Z,20.73
2023-01-08T21:01:11.267Z,23.00
2023-01-08T21:03:59.236Z,19.55
2023-01-08T21:06:34.165Z,24.02
2023-01-08T21:09:24.218Z,22.55
2023-01-08T21:12:05.363Z,21.40
2023-01-08T21:14:46.402Z,19.38
2023-01-08T21:17:27.309Z,24.70
2023-01-08T21:20:15.246Z,21.55
2023-01-08T21:22:49.234Z,23.02
2023-01-08T21:25:37.204Z,22.77
2023-01-08T21:28:11.161Z,21.38
2023-01-08T21:30:59.223Z,20.90
2023-01-08T21:33:40.284Z,18.77
2023-01-08T21:36:38.208Z,19.45
2023-01-08T21:39:12.204Z,22.90
2023-01-08T21:42:18.217Z,22.38
2023-01-08T21:45:17.238Z,24.50
2023-01-08T21:48:05.204Z,21.73
2023-01-08T21:50:39.191Z,23.85
2023-01-08T21:53:39.259Z,24.40
2023-01-08T21:56:13.184Z,22.08
2023-01-08T21:59:01.231Z,21.67
2023-01-08T22:01:55.248Z,23.25
2023-01-08T22:04:43.203Z,26.38
2023-01-08T22:07:17.345Z,23.83
2023-01-08T22:10:07.234Z,23.13
2023-01-08T22:12:48.216Z,24.52
2023-01-08T22:15:36.255Z,24.33
2023-01-08T22:18:17.217Z,25.10
2023-01-08T22:21:15.202Z,25.50
2023-01-08T22:24:03.237Z,23.85
2023-01-08T22:26:37.289Z,23.65
2023-01-08T22:29:25.260Z,21.38
2023-01-08T22:31:59.306Z,24.60
2023-01-08T22:34:46.245Z,23.60
2023-01-08T22:37:21.690Z,22.63
2023-01-08T22:40:08.220Z,20.75
2023-01-08T22:42:49.207Z,23.48
2023-01-08T22:45:36.316Z,23.00
2023-01-08T22:48:10.401Z,20.35
2023-01-08T22:50:58.206Z,21.48
2023-01-08T22:53:39.225Z,21.23
2023-01-08T22:56:34.246Z,24.13
2023-01-08T22:59:21.361Z,21.25
2023-01-08T23:02:02.257Z,22.52
2023-01-08T23:04:42.273Z,21.25
2023-01-08T23:07:23.223Z,22.92
2023-01-08T23:10:11.207Z,23.20
2023-01-08T23:12:52.196Z,20.50
2023-01-08T23:15:46.218Z,20.67
2023-01-08T23:18:33.235Z,22.88
2023-01-08T23:21:12.305Z,23.20
2023-01-08T23:24:00.240Z,23.80
2023-01-08T23:26:36.337Z,22.92
2023-01-08T23:29:23.207Z,21.65
2023-01-08T23:31:57.770Z,21.23
2023-01-08T23:34:44.285Z,22.02
2023-01-08T23:37:18.289Z,22.25
2023-01-08T23:40:05.229Z,21.23
2023-01-08T23:42:39.288Z,23.58
2023-01-08T23:45:33.281Z,20.77
2023-01-08T23:48:27.233Z,21.95
2023-01-08T23:51:15.220Z,22.83
2023-01-08T23:53:58.221Z,20.30
2023-01-08T23:56:53.198Z,22.48
2023-01-08T23:59:41.260Z,21.85
